createdAt,value
2019-01-19T00:01:13.612Z,31.60
2019-01-19T00:02:42.331Z,31.10
2019-01-19T00:04:16.305Z,31.40
2019-01-19T00:06:06.314Z,32.30
2019-01-19T00:07:40.612Z,32.17
2019-01-19T00:08:40.812Z,31.40
2019-01-19T00:09:44.625Z,31.40
2019-01-19T00:11:11.731Z,34.33
2019-01-19T00:12:58.843Z,33.53
2019-01-19T00:13:56.905Z,32.53
2019-01-19T00:14:47.469Z,32.30
2019-01-19T00:15:49.768Z,32.17
2019-01-19T00:17:45.563Z,32.98
2019-01-19T00:19:27.353Z,35.60
2019-01-19T00:21:04.437Z,33.05
2019-01-19T00:22:47.054Z,32.38
2019-01-19T00:24:08.495Z,36.38
2019-01-19T00:25:37.627Z,35.23
2019-01-19T00:27:04.133Z,41.88
2019-01-19T00:28:13.073Z,40.85
2019-01-19T00:29:12.231Z,45.33
2019-01-19T00:30:20.498Z,48.23
2019-01-19T00:31:10.757Z,46.95
2019-01-19T00:32:44.204Z,42.93
2019-01-19T00:34:33.935Z,50.17
2019-01-19T00:35:48.688Z,48.05
2019-01-19T00:36:36.145Z,58.75
2019-01-19T00:37:31.165Z,55.28
2019-01-19T00:38:45.970Z,56.05
2019-01-19T00:40:23.006Z,55.33
2019-01-19T00:42:01.844Z,55.65
2019-01-19T00:43:35.332Z,59.15
2019-01-19T00:44:45.095Z,52.50
2019-01-19T00:46:27.977Z,58.80
2019-01-19T00:47:22.445Z,59.08
2019-01-19T00:48:38.674Z,52.62
2019-01-19T00:49:33.530Z,59.93
2019-01-19T00:50:47.323Z,56.35
2019-01-19T00:51:52.077Z,58.80
2019-01-19T00:53:02.501Z,57.08
2019-01-19T00:53:51.694Z,61.92
2019-01-19T00:54:51.060Z,63.60
2019-01-19T00:56:34.765Z,63.02
2019-01-19T00:58:30.494Z,62.00
2019-01-19T00:59:11.369Z,60.00
2019-01-19T00:59:52.530Z,55.15
2019-01-19T01:00:47.945Z,62.15
2019-01-19T01:02:40.823Z,63.52
2019-01-19T01:03:42.704Z,67.92
2019-01-19T01:04:55.153Z,65.28
2019-01-19T01:05:38.544Z,60.33
2019-01-19T01:07:14.298Z,62.40
2019-01-19T01:08:45.272Z,65.55
2019-01-19T01:10:03.639Z,57.67
2019-01-19T01:10:58.049Z,64.10
2019-01-19T01:12:45.159Z,61.53
2019-01-19T01:14:15.505Z,60.67
2019-01-19T01:15:54.153Z,63.95
2019-01-19T01:17:00.368Z,56.23
2019-01-19T01:18:36.580Z,58.33
2019-01-19T01:20:10.250Z,61.25
2019-01-19T01:21:39.380Z,65.40
2019-01-19T01:22:58.556Z,65.52
2019-01-19T01:24:06.504Z,62.95
2019-01-19T01:25:11.620Z,63.75
2019-01-19T01:27:11.118Z,62.80
2019-01-19T01:28:24.948Z,61.65
2019-01-19T01:30:06.122Z,56.08
2019-01-19T01:31:15.617Z,65.87
2019-01-19T01:32:15.106Z,63.92
2019-01-19T01:33:27.998Z,64.70
2019-01-19T01:35:20.866Z,63.92
2019-01-19T01:37:07.850Z,58.28
2019-01-19T01:38:16.359Z,57.05
2019-01-19T01:39:53.008Z,59.15
2019-01-19T01:41:17.180Z,60.98
2019-01-19T01:43:18.018Z,54.67
2019-01-19T01:44:45.450Z,57.08
2019-01-19T01:46:07.729Z,58.38
2019-01-19T01:47:33.399Z,57.38
2019-01-19T01:49:24.654Z,56.92
2019-01-19T01:50:32.129Z,52.93
2019-01-19T01:51:59.386Z,55.12
2019-01-19T01:53:15.528Z,65.03
2019-01-19T01:54:41.868Z,53.85
2019-01-19T01:55:34.989Z,52.03
2019-01-19T01:56:14.312Z,51.68
2019-01-19T01:56:47.508Z,54.35
2019-01-19T01:57:36.875Z,53.05
2019-01-19T01:58:51.579Z,49.20
2019-01-19T02:00:16.477Z,50.92
2019-01-19T02:01:53.246Z,54.85
2019-01-19T02:02:51.433Z,47.75
2019-01-19T02:04:30.163Z,52.25
2019-01-19T02:06:00.337Z,48.25
2019-01-19T02:07:24.073Z,51.83
2019-01-19T02:08:49.682Z,50.80
2019-01-19T02:10:16.773Z,51.15
2019-01-19T02:11:57.024Z,50.43
2019-01-19T02:13:16.176Z,51.70
2019-01-19T02:14:22.997Z,55.65
2019-01-19T02:15:57.451Z,56.70
2019-01-19T02:17:31.174Z,56.50
2019-01-19T02:18:50.123Z,56.63
2019-01-19T02:20:07.604Z,66.75
2019-01-19T02:21:41.880Z,58.33
2019-01-19T02:23:19.609Z,62.90
2019-01-19T02:24:28.505Z,58.05
2019-01-19T02:26:13.531Z,56.95
2019-01-19T02:27:23.762Z,53.52
2019-01-19T02:28:34.670Z,60.05
2019-01-19T02:30:09.653Z,65.37
2019-01-19T02:31:49.841Z,58.08
2019-01-19T02:33:16.012Z,59.80
2019-01-19T02:34:46.160Z,62.75
2019-01-19T02:36:38.479Z,57.83
2019-01-19T02:37:54.569Z,64.32
2019-01-19T02:39:20.162Z,59.83
2019-01-19T02:40:33.281Z,58.92
2019-01-19T02:41:58.039Z,63.38
2019-01-19T02:43:37.457Z,64.17
2019-01-19T02:44:54.689Z,59.60
2019-01-19T02:46:26.750Z,62.90
2019-01-19T02:47:39.095Z,70.55
2019-01-19T02:49:00.883Z,67.62
2019-01-19T02:50:37.692Z,57.50
2019-01-19T02:52:10.309Z,67.45
2019-01-19T02:53:57.085Z,67.78
2019-01-19T02:55:21.581Z,67.80
2019-01-19T02:56:31.943Z,70.37
2019-01-19T02:58:04.279Z,82.15
2019-01-19T02:59:11.868Z,68.37
2019-01-19T03:00:53.211Z,70.75
2019-01-19T03:02:41.567Z,72.90
2019-01-19T03:03:46.174Z,69.53
2019-01-19T03:05:06.082Z,72.32
2019-01-19T03:05:56.281Z,70.05
2019-01-19T03:07:34.243Z,76.85
2019-01-19T03:08:59.959Z,70.42
2019-01-19T03:10:48.720Z,71.40
2019-01-19T03:12:05.409Z,64.58
2019-01-19T03:13:47.922Z,64.47
2019-01-19T03:14:37.374Z,67.25
2019-01-19T03:16:03.861Z,70.30
2019-01-19T03:17:33.807Z,64.75
2019-01-19T03:18:43.251Z,60.63
2019-01-19T03:20:17.232Z,72.32
2019-01-19T03:21:44.772Z,58.33
2019-01-19T03:23:04.438Z,69.00
2019-01-19T03:25:06.730Z,64.37
2019-01-19T03:26:35.960Z,61.63
2019-01-19T03:27:57.676Z,67.25
2019-01-19T03:29:35.316Z,73.50
2019-01-19T03:30:58.657Z,75.85
2019-01-19T03:33:06.782Z,74.25
2019-01-19T03:34:22.278Z,66.10
2019-01-19T03:35:54.362Z,66.87
2019-01-19T03:37:35.207Z,64.25
2019-01-19T03:38:55.714Z,61.77
2019-01-19T03:40:28.313Z,69.53
2019-01-19T03:41:49.178Z,64.77
2019-01-19T03:43:25.944Z,65.20
2019-01-19T03:44:51.604Z,68.40
2019-01-19T03:46:18.455Z,64.50
2019-01-19T03:47:47.088Z,73.67
2019-01-19T03:49:25.894Z,64.97
2019-01-19T03:51:05.350Z,69.62
2019-01-19T03:51:53.134Z,68.47
2019-01-19T03:53:24.670Z,68.05
2019-01-19T03:54:32.539Z,69.67
2019-01-19T03:56:00.308Z,64.72
2019-01-19T03:57:09.956Z,63.00
2019-01-19T03:58:25.564Z,72.17
2019-01-19T03:59:32.738Z,74.35
2019-01-19T04:00:36.248Z,75.08
2019-01-19T04:02:17.934Z,73.25
2019-01-19T04:03:54.630Z,76.10
2019-01-19T04:05:23.072Z,68.17
2019-01-19T04:06:48.262Z,78.50
2019-01-19T04:08:06.560Z,71.15
2019-01-19T04:09:56.155Z,73.02
2019-01-19T04:11:30.609Z,68.28
2019-01-19T04:13:07.288Z,71.45
2019-01-19T04:14:51.210Z,69.50
2019-01-19T04:16:20.621Z,70.42
2019-01-19T04:17:58.287Z,76.00
2019-01-19T04:19:01.370Z,72.42
2019-01-19T04:20:13.491Z,70.10
2019-01-19T04:21:16.983Z,73.02
2019-01-19T04:22:41.997Z,71.42
2019-01-19T04:23:15.081Z,77.40
2019-01-19T04:23:56.803Z,81.02
2019-01-19T04:25:02.217Z,74.10
2019-01-19T04:25:51.309Z,76.92
2019-01-19T04:26:36.750Z,72.60
2019-01-19T04:27:10.561Z,72.20
2019-01-19T04:27:43.729Z,68.57
2019-01-19T04:28:18.892Z,75.40
2019-01-19T04:28:52.980Z,75.62
2019-01-19T04:29:26.074Z,73.07
2019-01-19T04:29:59.187Z,79.82
2019-01-19T04:30:32.286Z,73.55
2019-01-19T04:31:05.465Z,77.45
2019-01-19T04:31:38.605Z,81.45
2019-01-19T04:32:11.823Z,79.60
2019-01-19T04:32:45.174Z,81.22
2019-01-19T04:33:19.790Z,74.95
2019-01-19T04:33:52.959Z,75.78
2019-01-19T04:34:27.735Z,70.40
2019-01-19T04:35:00.768Z,71.40
2019-01-19T04:35:33.827Z,82.20
2019-01-19T04:36:08.004Z,83.50
2019-01-19T04:36:41.175Z,78.47
2019-01-19T04:37:14.242Z,77.97
2019-01-19T04:37:47.295Z,83.40
2019-01-19T04:38:20.341Z,77.12
2019-01-19T04:38:53.490Z,73.20
2019-01-19T04:39:26.441Z,70.72
2019-01-19T04:39:59.555Z,76.80
2019-01-19T04:40:32.682Z,75.47
2019-01-19T04:41:05.640Z,74.95
2019-01-19T04:41:39.243Z,77.62
2019-01-19T04:42:12.825Z,84.32
2019-01-19T04:42:46.218Z,71.33
2019-01-19T04:43:19.161Z,78.75
2019-01-19T04:43:52.240Z,84.22
2019-01-19T04:44:25.331Z,78.87
2019-01-19T04:44:58.163Z,88.10
2019-01-19T04:45:31.235Z,82.37
2019-01-19T04:46:04.390Z,77.05
2019-01-19T04:46:37.479Z,81.42
2019-01-19T04:47:10.567Z,80.62
2019-01-19T04:47:44.761Z,79.85
2019-01-19T04:48:20.297Z,82.97
2019-01-19T04:48:53.481Z,82.82
2019-01-19T04:49:26.535Z,79.90
2019-01-19T04:49:59.535Z,72.58
2019-01-19T04:50:34.236Z,69.10
2019-01-19T04:51:07.291Z,82.82
2019-01-19T04:51:40.399Z,68.87
2019-01-19T04:52:13.402Z,81.65
2019-01-19T04:52:46.509Z,82.05
2019-01-19T04:53:19.677Z,78.95
2019-01-19T04:53:52.746Z,84.85
2019-01-19T04:54:25.716Z,72.42
2019-01-19T04:54:58.919Z,80.17
2019-01-19T04:55:32.191Z,77.75
2019-01-19T04:56:05.337Z,81.32
2019-01-19T04:56:38.394Z,77.82
2019-01-19T04:57:11.561Z,79.17
2019-01-19T04:57:44.734Z,74.27
2019-01-19T04:58:17.864Z,74.27
2019-01-19T04:58:52.511Z,83.10
2019-01-19T04:59:25.749Z,75.57
2019-01-19T04:59:58.831Z,84.87
2019-01-19T05:00:32.021Z,74.80
2019-01-19T05:01:05.084Z,76.62
2019-01-19T05:01:38.207Z,80.40
2019-01-19T05:02:11.359Z,73.30
2019-01-19T05:02:44.583Z,72.87
2019-01-19T05:03:17.667Z,78.70
2019-01-19T05:03:50.653Z,69.65
2019-01-19T05:04:24.741Z,71.70
2019-01-19T05:04:57.877Z,71.05
2019-01-19T05:05:30.887Z,74.90
2019-01-19T05:06:11.745Z,78.45
2019-01-19T05:06:39.037Z,72.87
2019-01-19T05:07:13.232Z,73.25
2019-01-19T05:07:46.377Z,65.00
2019-01-19T05:08:19.507Z,75.95
2019-01-19T05:08:52.589Z,71.50
2019-01-19T05:09:25.728Z,70.87
2019-01-19T05:09:58.887Z,75.97
2019-01-19T05:10:32.447Z,81.32
2019-01-19T05:11:05.621Z,72.95
2019-01-19T05:11:38.658Z,73.17
2019-01-19T05:12:11.731Z,76.75
2019-01-19T05:12:45.217Z,75.28
2019-01-19T05:13:19.369Z,74.45
2019-01-19T05:13:52.438Z,67.53
2019-01-19T05:14:25.457Z,76.53
2019-01-19T05:14:58.431Z,74.32
2019-01-19T05:15:31.673Z,68.12
2019-01-19T05:16:04.839Z,76.55
2019-01-19T05:16:37.925Z,70.72
2019-01-19T05:17:10.977Z,72.12
2019-01-19T05:17:44.721Z,81.45
2019-01-19T05:18:18.040Z,74.65
2019-01-19T05:18:52.257Z,78.07
2019-01-19T05:19:26.207Z,73.05
2019-01-19T05:19:59.204Z,70.40
2019-01-19T05:20:32.377Z,66.64
2019-01-19T05:21:05.660Z,72.72
2019-01-19T05:21:38.707Z,72.37
2019-01-19T05:22:11.881Z,68.33
2019-01-19T05:22:44.959Z,74.67
2019-01-19T05:23:18.163Z,66.65
2019-01-19T05:23:51.200Z,71.25
2019-01-19T05:24:24.369Z,72.35
2019-01-19T05:24:57.446Z,65.12
2019-01-19T05:25:30.384Z,67.35
2019-01-19T05:26:03.525Z,73.70
2019-01-19T05:26:36.584Z,69.75
2019-01-19T05:27:09.640Z,65.10
2019-01-19T05:27:42.799Z,66.10
2019-01-19T05:28:16.824Z,62.43
2019-01-19T05:28:50.001Z,68.33
2019-01-19T05:29:23.064Z,72.17
2019-01-19T05:29:56.025Z,73.60
2019-01-19T05:30:29.227Z,70.75
2019-01-19T05:31:02.273Z,72.87
2019-01-19T05:31:35.257Z,73.85
2019-01-19T05:32:08.490Z,72.65
2019-01-19T05:32:41.639Z,72.37
2019-01-19T05:33:14.739Z,65.40
2019-01-19T05:33:47.767Z,70.80
2019-01-19T05:34:20.854Z,75.70
2019-01-19T05:34:54.191Z,68.92
2019-01-19T05:35:28.735Z,73.57
2019-01-19T05:36:01.778Z,66.82
2019-01-19T05:36:38.426Z,69.45
2019-01-19T05:37:09.803Z,68.42
2019-01-19T05:37:43.063Z,82.42
2019-01-19T05:38:16.172Z,66.82
2019-01-19T05:38:49.239Z,70.12
2019-01-19T05:39:22.475Z,66.20
2019-01-19T05:39:55.530Z,68.47
2019-01-19T05:40:28.709Z,68.00
2019-01-19T05:41:01.580Z,68.78
2019-01-19T05:41:34.623Z,72.10
2019-01-19T05:42:07.817Z,72.87
2019-01-19T05:42:41.063Z,67.42
2019-01-19T05:43:14.176Z,71.40
2019-01-19T05:43:47.239Z,77.20
2019-01-19T05:44:20.295Z,69.20
2019-01-19T05:44:53.339Z,68.42
2019-01-19T05:45:26.512Z,74.67
2019-01-19T05:45:59.599Z,66.95
2019-01-19T05:46:34.332Z,59.18
2019-01-19T05:47:07.378Z,71.40
2019-01-19T05:47:40.756Z,67.00
2019-01-19T05:48:13.656Z,60.50
2019-01-19T05:48:46.711Z,64.90
2019-01-19T05:49:19.707Z,67.10
2019-01-19T05:49:52.910Z,71.55
2019-01-19T05:50:26.011Z,70.47
2019-01-19T05:50:59.044Z,64.67
2019-01-19T05:51:33.766Z,59.55
2019-01-19T05:52:06.725Z,77.27
2019-01-19T05:52:39.777Z,65.47
2019-01-19T05:53:12.751Z,68.72
2019-01-19T05:53:45.892Z,67.40
2019-01-19T05:54:18.941Z,66.33
2019-01-19T05:54:51.928Z,60.85
2019-01-19T05:55:24.982Z,53.73
2019-01-19T05:55:58.015Z,58.40
2019-01-19T05:56:31.056Z,61.10
2019-01-19T05:57:04.142Z,64.67
2019-01-19T05:57:37.354Z,67.27
2019-01-19T05:58:10.496Z,67.92
2019-01-19T05:58:43.667Z,57.30
2019-01-19T05:59:16.790Z,52.98
2019-01-19T05:59:49.931Z,64.72
2019-01-19T06:00:34.127Z,63.35
2019-01-19T06:01:07.243Z,64.90
2019-01-19T06:01:40.414Z,66.10
2019-01-19T06:02:13.457Z,61.30
2019-01-19T06:02:46.572Z,58.98
2019-01-19T06:03:19.612Z,57.20
2019-01-19T06:03:52.714Z,59.45
2019-01-19T06:04:25.642Z,55.98
2019-01-19T06:04:58.762Z,67.03
2019-01-19T06:05:31.932Z,62.04
2019-01-19T06:06:05.239Z,54.45
2019-01-19T06:06:46.374Z,64.53
2019-01-19T06:07:13.202Z,63.00
2019-01-19T06:07:46.274Z,61.00
2019-01-19T06:08:19.293Z,60.30
2019-01-19T06:08:52.340Z,62.75
2019-01-19T06:09:25.338Z,63.78
2019-01-19T06:09:58.382Z,64.53
2019-01-19T06:10:31.426Z,66.05
2019-01-19T06:11:04.882Z,66.35
2019-01-19T06:11:37.984Z,65.80
2019-01-19T06:12:11.043Z,70.30
2019-01-19T06:12:44.192Z,62.33
2019-01-19T06:13:17.261Z,68.35
2019-01-19T06:13:50.268Z,65.60
2019-01-19T06:14:23.340Z,65.78
2019-01-19T06:14:56.246Z,65.65
2019-01-19T06:15:29.307Z,72.40
2019-01-19T06:16:02.307Z,64.30
2019-01-19T06:16:36.176Z,65.97
2019-01-19T06:17:09.195Z,61.92
2019-01-19T06:17:42.346Z,68.42
2019-01-19T06:18:15.462Z,70.72
2019-01-19T06:18:48.682Z,66.72
2019-01-19T06:19:22.001Z,70.47
2019-01-19T06:19:55.077Z,71.05
2019-01-19T06:20:28.196Z,65.62
2019-01-19T06:21:01.461Z,73.10
2019-01-19T06:21:39.600Z,67.42
2019-01-19T06:22:12.764Z,71.55
2019-01-19T06:22:45.766Z,64.30
2019-01-19T06:23:18.946Z,69.75
2019-01-19T06:23:52.024Z,60.55
2019-01-19T06:24:24.976Z,53.38
2019-01-19T06:24:58.088Z,63.70
2019-01-19T06:25:31.315Z,63.68
2019-01-19T06:26:04.720Z,58.52
2019-01-19T06:26:37.808Z,61.25
2019-01-19T06:27:10.707Z,63.28
2019-01-19T06:27:43.912Z,72.17
2019-01-19T06:28:16.926Z,63.40
2019-01-19T06:28:49.979Z,67.70
2019-01-19T06:29:23.092Z,60.73
2019-01-19T06:29:56.062Z,71.12
2019-01-19T06:30:28.971Z,55.70
2019-01-19T06:31:03.015Z,62.80
2019-01-19T06:31:36.160Z,67.72
2019-01-19T06:32:09.206Z,57.08
2019-01-19T06:32:46.603Z,59.83
2019-01-19T06:33:19.783Z,59.98
2019-01-19T06:33:53.004Z,63.73
2019-01-19T06:34:26.229Z,64.72
2019-01-19T06:34:59.448Z,48.95
2019-01-19T06:35:32.714Z,49.38
2019-01-19T06:36:05.761Z,51.35
2019-01-19T06:36:38.834Z,48.35
2019-01-19T06:37:12.005Z,58.17
2019-01-19T06:37:45.678Z,49.33
2019-01-19T06:38:18.845Z,55.48
2019-01-19T06:38:51.880Z,48.83
2019-01-19T06:39:25.038Z,58.55
2019-01-19T06:39:58.042Z,63.05
2019-01-19T06:40:31.115Z,58.13
2019-01-19T06:41:04.225Z,52.27
2019-01-19T06:41:37.311Z,57.78
2019-01-19T06:42:10.492Z,51.10
2019-01-19T06:42:43.678Z,63.23
2019-01-19T06:43:16.794Z,61.15
2019-01-19T06:43:49.847Z,62.48
2019-01-19T06:44:23.026Z,59.98
2019-01-19T06:44:55.968Z,54.03
2019-01-19T06:45:28.988Z,56.20
2019-01-19T06:46:03.311Z,59.25
2019-01-19T06:46:36.323Z,60.52
2019-01-19T06:47:09.484Z,55.17
2019-01-19T06:47:42.651Z,60.67
2019-01-19T06:48:15.751Z,61.65
2019-01-19T06:48:48.910Z,57.67
2019-01-19T06:49:21.899Z,60.38
2019-01-19T06:49:55.072Z,57.48
2019-01-19T06:50:28.272Z,53.92
2019-01-19T06:51:01.594Z,56.73
2019-01-19T06:51:34.540Z,62.05
2019-01-19T06:52:07.623Z,59.88
2019-01-19T06:52:40.799Z,60.95
2019-01-19T06:53:13.661Z,59.80
2019-01-19T06:53:47.536Z,57.88
2019-01-19T06:54:21.625Z,61.65
2019-01-19T06:54:54.722Z,59.48
2019-01-19T06:55:33.429Z,63.87
2019-01-19T06:56:06.570Z,61.37
2019-01-19T06:56:39.655Z,60.23
2019-01-19T06:57:12.759Z,61.02
2019-01-19T06:57:45.812Z,61.80
2019-01-19T06:58:18.870Z,65.90
2019-01-19T06:58:51.918Z,64.67
2019-01-19T06:59:25.035Z,59.95
2019-01-19T06:59:58.090Z,63.90
2019-01-19T07:00:32.050Z,60.95
2019-01-19T07:01:05.232Z,61.45
2019-01-19T07:01:38.429Z,63.78
2019-01-19T07:02:11.492Z,58.83
2019-01-19T07:02:44.847Z,56.80
2019-01-19T07:03:17.900Z,56.98
2019-01-19T07:03:50.929Z,61.80
2019-01-19T07:04:23.933Z,63.48
2019-01-19T07:04:56.898Z,59.00
2019-01-19T07:05:29.973Z,58.58
2019-01-19T07:06:03.062Z,59.30
2019-01-19T07:06:36.134Z,49.15
2019-01-19T07:07:09.289Z,57.80
2019-01-19T07:07:42.510Z,57.90
2019-01-19T07:08:17.001Z,59.33
2019-01-19T07:08:50.208Z,53.98
2019-01-19T07:09:23.343Z,51.15
2019-01-19T07:09:56.439Z,60.12
2019-01-19T07:10:29.637Z,59.27
2019-01-19T07:11:02.727Z,58.20
2019-01-19T07:11:35.953Z,56.30
2019-01-19T07:12:09.084Z,52.93
2019-01-19T07:12:42.249Z,56.90
2019-01-19T07:13:15.402Z,57.03
2019-01-19T07:13:48.411Z,57.20
2019-01-19T07:14:21.599Z,55.05
2019-01-19T07:14:54.549Z,54.38
2019-01-19T07:15:27.709Z,55.80
2019-01-19T07:16:02.534Z,58.35
2019-01-19T07:16:35.714Z,51.58
2019-01-19T07:17:08.897Z,54.25
2019-01-19T07:17:42.076Z,59.25
2019-01-19T07:18:15.141Z,59.88
2019-01-19T07:18:48.281Z,55.73
2019-01-19T07:19:21.427Z,61.00
2019-01-19T07:19:54.498Z,58.02
2019-01-19T07:20:30.869Z,55.33
2019-01-19T07:21:04.247Z,58.78
2019-01-19T07:21:37.499Z,57.53
2019-01-19T07:22:10.481Z,54.18
2019-01-19T07:22:43.711Z,54.83
2019-01-19T07:23:18.426Z,61.48
2019-01-19T07:23:51.530Z,59.18
2019-01-19T07:24:24.594Z,48.05
2019-01-19T07:24:57.560Z,53.45
2019-01-19T07:25:30.405Z,52.95
2019-01-19T07:26:04.417Z,56.85
2019-01-19T07:26:37.385Z,58.98
2019-01-19T07:27:10.667Z,58.60
2019-01-19T07:27:43.693Z,55.12
2019-01-19T07:28:16.719Z,53.25
2019-01-19T07:28:49.771Z,57.17
2019-01-19T07:29:22.997Z,57.93
2019-01-19T07:29:56.081Z,55.35
2019-01-19T07:30:29.237Z,60.05
2019-01-19T07:31:02.282Z,58.40
2019-01-19T07:31:35.371Z,60.40
2019-01-19T07:32:08.427Z,60.52
2019-01-19T07:32:41.680Z,60.92
2019-01-19T07:33:14.755Z,63.75
2019-01-19T07:33:47.776Z,60.70
2019-01-19T07:34:20.830Z,62.88
2019-01-19T07:34:53.930Z,58.50
2019-01-19T07:35:27.031Z,60.40
2019-01-19T07:36:00.177Z,58.87
2019-01-19T07:36:35.665Z,58.65
2019-01-19T07:37:09.991Z,62.88
2019-01-19T07:37:43.425Z,56.95
2019-01-19T07:38:16.561Z,54.18
2019-01-19T07:38:49.625Z,55.52
2019-01-19T07:39:22.795Z,47.88
2019-01-19T07:39:55.861Z,54.05
2019-01-19T07:40:29.064Z,59.10
2019-01-19T07:41:03.236Z,51.77
2019-01-19T07:41:36.317Z,56.55
2019-01-19T07:42:09.481Z,47.55
2019-01-19T07:42:43.346Z,30.45
2019-01-19T07:43:16.501Z,46.15
2019-01-19T07:43:49.625Z,51.30
2019-01-19T07:44:22.589Z,42.75
2019-01-19T07:44:55.609Z,44.93
2019-01-19T07:45:28.739Z,57.45
2019-01-19T07:46:02.359Z,53.50
2019-01-19T07:46:35.717Z,58.15
2019-01-19T07:47:08.920Z,59.05
2019-01-19T07:47:42.999Z,54.30
2019-01-19T07:48:16.213Z,58.58
2019-01-19T07:48:49.389Z,60.10
2019-01-19T07:49:22.499Z,56.35
2019-01-19T07:49:55.633Z,59.10
2019-01-19T07:50:28.653Z,59.70
2019-01-19T07:51:01.757Z,58.58
2019-01-19T07:51:34.778Z,61.95
2019-01-19T07:52:07.802Z,66.67
2019-01-19T07:52:40.915Z,58.58
2019-01-19T07:53:14.281Z,56.83
2019-01-19T07:53:47.275Z,61.68
2019-01-19T07:54:20.207Z,55.60
2019-01-19T07:54:53.226Z,56.90
2019-01-19T07:55:26.339Z,56.70
2019-01-19T07:55:59.459Z,59.23
2019-01-19T07:56:32.503Z,58.28
2019-01-19T07:57:05.503Z,55.20
2019-01-19T07:57:38.649Z,62.30
2019-01-19T07:58:11.707Z,56.73
2019-01-19T07:58:44.723Z,60.63
2019-01-19T07:59:17.711Z,61.35
2019-01-19T07:59:50.787Z,64.17
2019-01-19T08:00:27.886Z,61.15
2019-01-19T08:01:01.011Z,54.50
2019-01-19T08:01:34.001Z,57.05
2019-01-19T08:02:07.242Z,62.33
2019-01-19T08:02:40.377Z,56.53
2019-01-19T08:03:14.733Z,59.70
2019-01-19T08:03:47.729Z,61.20
2019-01-19T08:04:20.675Z,60.80
2019-01-19T08:04:53.701Z,60.55
2019-01-19T08:05:26.856Z,58.63
2019-01-19T08:05:59.898Z,54.45
2019-01-19T08:06:32.985Z,44.40
2019-01-19T08:07:06.099Z,50.10
2019-01-19T08:07:39.171Z,53.68
2019-01-19T08:08:12.171Z,50.95
2019-01-19T08:08:45.095Z,51.10
2019-01-19T08:09:18.205Z,53.85
2019-01-19T08:09:52.307Z,54.08
2019-01-19T08:10:25.306Z,57.80
2019-01-19T08:10:58.367Z,54.58
2019-01-19T08:11:31.381Z,54.73
2019-01-19T08:12:04.665Z,52.40
2019-01-19T08:12:37.779Z,51.10
2019-01-19T08:13:11.001Z,50.88
2019-01-19T08:13:44.007Z,51.65
2019-01-19T08:14:17.121Z,51.60
2019-01-19T08:14:50.139Z,56.25
2019-01-19T08:15:25.059Z,49.05
2019-01-19T08:15:58.072Z,52.98
2019-01-19T08:16:31.475Z,52.83
2019-01-19T08:17:04.487Z,50.33
2019-01-19T08:17:37.547Z,47.48
2019-01-19T08:18:16.569Z,50.85
2019-01-19T08:18:49.636Z,54.33
2019-01-19T08:19:22.655Z,46.30
2019-01-19T08:19:55.573Z,52.45
2019-01-19T08:20:28.665Z,51.63
2019-01-19T08:21:04.345Z,53.23
2019-01-19T08:21:37.463Z,50.92
2019-01-19T08:22:10.577Z,50.35
2019-01-19T08:22:43.611Z,50.63
2019-01-19T08:23:18.034Z,52.15
2019-01-19T08:23:50.951Z,54.77
2019-01-19T08:24:24.041Z,49.25
2019-01-19T08:24:57.041Z,48.20
2019-01-19T08:25:29.953Z,45.95
2019-01-19T08:26:03.081Z,47.03
2019-01-19T08:26:36.110Z,47.73
2019-01-19T08:27:09.195Z,45.52
2019-01-19T08:27:42.283Z,50.52
2019-01-19T08:28:15.387Z,47.80
2019-01-19T08:28:48.403Z,50.48
2019-01-19T08:29:21.390Z,53.58
2019-01-19T08:29:54.559Z,50.85
2019-01-19T08:30:29.267Z,45.78
2019-01-19T08:31:02.277Z,39.48
2019-01-19T08:31:35.282Z,46.42
2019-01-19T08:32:08.861Z,48.45
2019-01-19T08:32:42.120Z,45.20
2019-01-19T08:33:15.216Z,42.05
2019-01-19T08:33:48.243Z,49.05
2019-01-19T08:34:21.311Z,44.95
2019-01-19T08:34:54.298Z,44.27
2019-01-19T08:35:27.927Z,47.70
2019-01-19T08:36:01.065Z,46.63
2019-01-19T08:36:34.023Z,45.35
2019-01-19T08:37:07.161Z,46.92
2019-01-19T08:37:40.222Z,43.25
2019-01-19T08:38:13.163Z,38.20
2019-01-19T08:38:46.354Z,44.08
2019-01-19T08:39:19.582Z,48.10
2019-01-19T08:39:52.726Z,44.75
2019-01-19T08:40:29.537Z,46.18
2019-01-19T08:41:02.667Z,42.58
2019-01-19T08:41:35.762Z,44.60
2019-01-19T08:42:08.923Z,46.15
2019-01-19T08:42:42.031Z,45.55
2019-01-19T08:43:37.892Z,43.35
2019-01-19T08:44:10.997Z,45.40
2019-01-19T08:44:44.194Z,45.10
2019-01-19T08:45:19.712Z,45.98
2019-01-19T08:45:52.910Z,44.13
2019-01-19T08:46:25.986Z,47.03
2019-01-19T08:46:59.034Z,44.38
2019-01-19T08:47:32.166Z,47.23
2019-01-19T08:48:05.432Z,42.43
2019-01-19T08:48:38.647Z,43.28
2019-01-19T08:49:11.691Z,40.98
2019-01-19T08:49:44.880Z,41.50
2019-01-19T08:50:18.203Z,42.35
2019-01-19T08:50:51.220Z,40.88
2019-01-19T08:51:24.264Z,41.30
2019-01-19T08:51:57.271Z,39.90
2019-01-19T08:52:30.384Z,40.85
2019-01-19T08:53:03.512Z,37.13
2019-01-19T08:53:36.690Z,40.20
2019-01-19T08:54:09.816Z,40.12
2019-01-19T08:54:42.882Z,42.93
2019-01-19T08:55:15.988Z,43.95
2019-01-19T08:55:49.190Z,41.73
2019-01-19T08:56:22.204Z,41.00
2019-01-19T08:56:56.786Z,37.20
2019-01-19T08:57:29.748Z,43.83
2019-01-19T08:58:03.249Z,41.65
2019-01-19T08:58:36.282Z,39.53
2019-01-19T08:59:09.416Z,34.73
2019-01-19T08:59:42.364Z,36.45
2019-01-19T09:00:15.568Z,38.10
2019-01-19T09:00:48.564Z,35.88
2019-01-19T09:01:21.630Z,38.38
2019-01-19T09:01:54.656Z,35.92
2019-01-19T09:02:27.903Z,36.25
2019-01-19T09:03:01.049Z,38.55
2019-01-19T09:03:34.136Z,44.73
2019-01-19T09:04:07.276Z,36.13
2019-01-19T09:04:40.416Z,39.15
2019-01-19T09:05:13.536Z,35.08
2019-01-19T09:05:46.588Z,37.40
2019-01-19T09:06:19.605Z,37.03
2019-01-19T09:06:52.688Z,37.65
2019-01-19T09:07:33.309Z,36.80
2019-01-19T09:08:00.760Z,34.48
2019-01-19T09:08:33.886Z,37.67
2019-01-19T09:09:07.022Z,35.85
2019-01-19T09:09:40.102Z,36.35
2019-01-19T09:10:13.666Z,35.05
2019-01-19T09:10:46.957Z,35.65
2019-01-19T09:11:20.086Z,35.88
2019-01-19T09:11:53.118Z,36.65
2019-01-19T09:12:26.284Z,34.08
2019-01-19T09:12:59.332Z,36.63
2019-01-19T09:13:32.472Z,36.08
2019-01-19T09:14:05.573Z,35.28
2019-01-19T09:14:38.664Z,38.17
2019-01-19T09:15:13.388Z,39.95
2019-01-19T09:15:46.986Z,39.18
2019-01-19T09:16:21.584Z,37.73
2019-01-19T09:16:54.662Z,33.88
2019-01-19T09:17:27.660Z,33.70
2019-01-19T09:18:00.842Z,34.45
2019-01-19T09:18:34.426Z,34.48
2019-01-19T09:19:07.528Z,35.23
2019-01-19T09:19:40.547Z,33.73
2019-01-19T09:20:14.440Z,37.45
2019-01-19T09:20:47.539Z,33.33
2019-01-19T09:21:20.610Z,34.03
2019-01-19T09:21:53.688Z,35.35
2019-01-19T09:22:26.758Z,34.40
2019-01-19T09:23:08.806Z,33.73
2019-01-19T09:24:01.605Z,34.45
2019-01-19T09:24:34.714Z,34.25
2019-01-19T09:25:10.690Z,33.95
2019-01-19T09:25:43.794Z,34.20
2019-01-19T09:26:16.832Z,33.63
2019-01-19T09:26:49.950Z,32.50
2019-01-19T09:27:23.096Z,33.58
2019-01-19T09:27:56.226Z,34.25
2019-01-19T09:28:29.367Z,33.00
2019-01-19T09:29:02.598Z,33.35
2019-01-19T09:29:35.628Z,34.23
2019-01-19T09:30:14.626Z,33.63
2019-01-19T09:30:47.826Z,33.42
2019-01-19T09:31:20.730Z,34.13
2019-01-19T09:31:53.815Z,33.73
2019-01-19T09:32:27.428Z,33.78
2019-01-19T09:33:00.740Z,33.73
2019-01-19T09:33:35.087Z,33.95
2019-01-19T09:34:08.206Z,34.00
2019-01-19T09:34:41.216Z,33.90
2019-01-19T09:35:15.426Z,33.02
2019-01-19T09:35:48.534Z,35.23
2019-01-19T09:36:21.615Z,34.03
2019-01-19T09:36:54.718Z,33.28
2019-01-19T09:37:27.933Z,32.55
2019-01-19T09:38:00.932Z,33.10
2019-01-19T09:38:35.370Z,33.90
2019-01-19T09:39:11.590Z,32.88
2019-01-19T09:39:44.791Z,33.13
2019-01-19T09:40:18.857Z,32.98
2019-01-19T09:40:51.937Z,34.03
2019-01-19T09:41:25.936Z,33.80
2019-01-19T09:41:59.170Z,32.90
2019-01-19T09:42:32.229Z,33.60
2019-01-19T09:43:05.422Z,33.42
2019-01-19T09:43:38.391Z,33.05
2019-01-19T09:44:11.453Z,33.50
2019-01-19T09:44:44.527Z,33.58
2019-01-19T09:45:18.170Z,34.25
2019-01-19T09:45:51.304Z,33.23
2019-01-19T09:46:26.718Z,33.67
2019-01-19T09:46:59.838Z,32.98
2019-01-19T09:47:34.620Z,34.08
2019-01-19T09:48:07.882Z,31.73
2019-01-19T09:48:41.042Z,33.85